createdAt,value
2023-04-05T00:02:24.485Z,3.21
2023-04-05T00:04:54.717Z,3.17
2023-04-05T00:07:21.773Z,3.15
2023-04-05T00:09:49.542Z,3.09
2023-04-05T00:12:16.541Z,3.13
2023-04-05T00:14:43.391Z,3.12
2023-04-05T00:17:11.964Z,3.09
2023-04-05T00:19:39.816Z,3.07
2023-04-05T00:22:10.536Z,3.02
2023-04-05T00:24:41.853Z,3.11
2023-04-05T00:27:08.881Z,3.17
2023-04-05T00:29:35.932Z,3.20
2023-04-05T00:32:04.646Z,3.31
2023-04-05T00:34:32.598Z,3.34
2023-04-05T00:36:59.948Z,3.42
2023-04-05T00:39:27.529Z,3.45
2023-04-05T00:41:54.366Z,3.43
2023-04-05T00:44:21.295Z,3.49
2023-04-05T00:46:48.547Z,3.50
2023-04-05T00:49:15.385Z,3.51
2023-04-05T00:51:42.335Z,3.53
2023-04-05T00:54:09.671Z,3.59
2023-04-05T00:56:36.751Z,3.57
2023-04-05T00:59:03.591Z,3.56
2023-04-05T01:01:37.755Z,3.53
2023-04-05T01:04:06.931Z,3.56
2023-04-05T01:06:54.160Z,3.65
2023-04-05T01:09:53.888Z,3.62
2023-04-05T01:12:24.446Z,3.60
2023-04-05T01:14:54.244Z,3.67
2023-04-05T01:17:28.092Z,3.63
2023-04-05T01:20:01.033Z,3.56
2023-04-05T01:23:01.659Z,3.40
2023-04-05T01:25:49.777Z,3.40
2023-04-05T01:28:46.805Z,3.41
2023-04-05T01:31:38.482Z,3.37
2023-04-05T01:34:14.640Z,3.35
2023-04-05T01:36:50.066Z,3.34
2023-04-05T01:39:20.665Z,3.31
2023-04-05T01:41:47.788Z,3.25
2023-04-05T01:44:14.828Z,3.30
2023-04-05T01:46:41.992Z,3.28
2023-04-05T01:49:09.037Z,3.23
2023-04-05T01:51:35.909Z,3.29
2023-04-05T01:54:02.712Z,3.29
2023-04-05T01:56:29.504Z,3.22
2023-04-05T01:58:56.499Z,3.26
2023-04-05T02:01:23.370Z,3.31
2023-04-05T02:03:50.338Z,3.27
2023-04-05T02:06:17.313Z,3.23
2023-04-05T02:08:44.261Z,3.31
2023-04-05T02:11:11.163Z,3.42
2023-04-05T02:13:37.960Z,3.44
2023-04-05T02:16:04.905Z,3.48
2023-04-05T02:18:32.013Z,3.38
2023-04-05T02:21:08.238Z,3.44
2023-04-05T02:23:35.477Z,3.49
2023-04-05T02:26:02.567Z,3.53
2023-04-05T02:28:29.649Z,3.56
2023-04-05T02:30:56.817Z,3.54
2023-04-05T02:33:23.751Z,3.48
2023-04-05T02:35:52.566Z,3.60
2023-04-05T02:38:19.409Z,3.45
2023-04-05T02:40:49.769Z,3.59
2023-04-05T02:43:16.811Z,3.62
2023-04-05T02:45:46.254Z,3.70
2023-04-05T02:48:13.755Z,3.74
2023-04-05T02:50:40.900Z,3.75
2023-04-05T02:53:08.126Z,3.73
2023-04-05T02:55:35.002Z,3.78
2023-04-05T02:58:01.931Z,3.65
2023-04-05T03:00:29.116Z,3.72
2023-04-05T03:02:56.626Z,3.75
2023-04-05T03:05:23.614Z,3.77
2023-04-05T03:07:51.947Z,3.76
2023-04-05T03:10:22.524Z,3.79
2023-04-05T03:12:51.465Z,3.80
2023-04-05T03:15:18.340Z,3.79
2023-04-05T03:17:45.831Z,3.73
2023-04-05T03:20:13.262Z,3.75
2023-04-05T03:22:41.104Z,3.81
2023-04-05T03:25:08.267Z,3.75
2023-04-05T03:27:35.286Z,3.76
2023-04-05T03:30:02.323Z,3.88
2023-04-05T03:32:29.190Z,3.79
2023-04-05T03:34:56.751Z,3.90
2023-04-05T03:37:23.672Z,3.92
2023-04-05T03:39:50.917Z,3.88
2023-04-05T03:42:18.052Z,3.85
2023-04-05T03:44:44.877Z,3.79
2023-04-05T03:47:13.166Z,3.84
2023-04-05T03:49:41.109Z,3.84
2023-04-05T03:52:08.615Z,3.80
2023-04-05T03:54:35.593Z,3.72
2023-04-05T03:57:02.967Z,3.76
2023-04-05T03:59:29.975Z,3.59
2023-04-05T04:01:56.981Z,3.63
2023-04-05T04:04:23.885Z,3.58
2023-04-05T04:06:50.958Z,3.63
2023-04-05T04:09:17.796Z,3.59
2023-04-05T04:11:44.596Z,3.46
2023-04-05T04:14:11.429Z,3.32
2023-04-05T04:16:38.250Z,3.48
2023-04-05T04:19:05.396Z,3.57
2023-04-05T04:21:32.564Z,3.47
2023-04-05T04:24:00.772Z,3.49
2023-04-05T04:26:29.000Z,3.49
2023-04-05T04:28:56.646Z,3.47
2023-04-05T04:31:23.495Z,3.42
2023-04-05T04:33:50.802Z,3.36
2023-04-05T04:36:18.229Z,3.32
2023-04-05T04:38:46.081Z,3.31
2023-04-05T04:41:14.239Z,3.18
2023-04-05T06:00:34.793Z,5.02
2023-04-05T06:03:01.781Z,5.35
2023-04-05T06:05:29.114Z,5.49
2023-04-05T06:07:55.910Z,5.78
2023-04-05T06:10:24.188Z,5.89
2023-04-05T06:12:51.653Z,6.05
2023-04-05T06:15:18.436Z,6.28
2023-04-05T06:17:45.441Z,6.52
2023-04-05T06:20:12.658Z,6.58
2023-04-05T06:22:42.583Z,6.46
2023-04-05T06:25:10.122Z,7.00
2023-04-05T06:27:36.910Z,7.23
2023-04-05T06:30:04.211Z,7.52
2023-04-05T06:32:31.032Z,7.14
2023-04-05T06:34:57.906Z,7.24
2023-04-05T06:37:24.728Z,7.24
2023-04-05T06:39:51.479Z,7.21
2023-04-05T06:42:18.384Z,7.40
2023-04-05T06:44:45.354Z,7.20
2023-04-05T06:47:12.104Z,7.41
2023-04-05T06:49:38.895Z,6.91
2023-04-05T06:52:06.710Z,7.11
2023-04-05T06:54:34.467Z,7.38
2023-04-05T06:57:02.160Z,7.34
2023-04-05T06:59:29.946Z,7.29
2023-04-05T07:01:56.958Z,6.99
2023-04-05T07:04:23.806Z,7.43
2023-04-05T07:06:51.029Z,7.78
2023-04-05T07:09:18.084Z,7.55
2023-04-05T07:11:44.883Z,8.04
2023-04-05T07:14:11.742Z,7.72
2023-04-05T07:16:38.528Z,8.35
2023-04-05T07:19:06.181Z,7.95
2023-04-05T07:21:33.214Z,8.12
2023-04-05T07:24:01.878Z,8.21
2023-04-05T07:26:28.976Z,8.03
2023-04-05T07:28:55.757Z,8.11
2023-04-05T07:31:22.608Z,8.43
2023-04-05T07:33:49.410Z,9.14
2023-04-05T07:36:16.349Z,8.56
2023-04-05T07:38:43.255Z,8.74
2023-04-05T07:41:10.250Z,8.87
2023-04-05T07:43:37.248Z,8.93
2023-04-05T07:46:04.965Z,9.41
2023-04-05T07:48:31.916Z,9.55
2023-04-05T07:51:05.118Z,9.59
2023-04-05T07:53:32.036Z,10.04
2023-04-05T07:55:59.177Z,10.21
2023-04-05T07:58:26.303Z,9.89
2023-04-05T08:00:53.486Z,10.20
2023-04-05T08:03:20.667Z,10.09
2023-04-05T08:05:47.620Z,10.22
2023-04-05T08:08:14.422Z,10.25
2023-04-05T08:10:41.399Z,10.02
2023-04-05T08:13:08.361Z,10.03
2023-04-05T08:15:35.729Z,9.71
2023-04-05T08:18:02.642Z,10.06
2023-04-05T08:20:29.519Z,10.19
2023-04-05T08:22:56.426Z,9.94
2023-04-05T08:25:23.310Z,10.61
2023-04-05T08:27:50.147Z,11.11
2023-04-05T08:30:19.810Z,10.47
2023-04-05T08:32:46.677Z,11.06
2023-04-05T08:35:13.554Z,11.42
2023-04-05T08:37:40.677Z,11.66
2023-04-05T08:40:08.665Z,12.34
2023-04-05T08:42:47.029Z,12.57
2023-04-05T08:45:18.170Z,12.45
2023-04-05T08:47:46.421Z,12.33
2023-04-05T08:50:13.699Z,11.84
2023-04-05T08:52:43.121Z,11.98
2023-04-05T08:55:10.151Z,12.68
2023-04-05T08:57:40.525Z,11.93
2023-04-05T09:00:09.130Z,11.36
2023-04-05T09:02:38.006Z,11.41
2023-04-05T09:05:09.980Z,11.13
2023-04-05T09:07:38.571Z,11.50
2023-04-05T09:10:07.010Z,12.32
2023-04-05T09:12:36.717Z,11.87
2023-04-05T09:15:03.676Z,12.92
2023-04-05T09:17:32.375Z,12.05
2023-04-05T09:19:59.268Z,12.57
2023-04-05T09:22:26.126Z,12.31
2023-04-05T09:24:53.204Z,13.03
2023-04-05T09:27:20.801Z,12.25
2023-04-05T09:29:49.841Z,13.21
2023-04-05T09:32:21.497Z,13.84
2023-04-05T09:34:48.506Z,13.79
2023-04-05T09:37:22.320Z,13.66
2023-04-05T09:39:51.722Z,12.76
2023-04-05T09:42:22.931Z,12.98
2023-04-05T09:45:02.567Z,13.42
2023-04-05T09:47:34.093Z,14.20
2023-04-05T09:50:07.055Z,15.29
2023-04-05T09:52:34.096Z,15.41
2023-04-05T09:55:04.184Z,15.11
2023-04-05T09:57:37.704Z,14.92
2023-04-05T10:00:19.290Z,14.92
2023-04-05T10:02:51.935Z,14.41
2023-04-05T10:05:19.082Z,14.98
2023-04-05T10:07:46.183Z,15.82
2023-04-05T10:10:15.966Z,15.96
2023-04-05T10:12:43.137Z,15.82
2023-04-05T10:15:12.114Z,15.21
2023-04-05T10:18:04.442Z,14.37
2023-04-05T10:20:33.676Z,14.60
2023-04-05T10:23:08.458Z,14.12
2023-04-05T10:25:53.783Z,14.13
2023-04-05T10:28:36.174Z,13.49
2023-04-05T10:31:52.785Z,13.51
2023-04-05T10:34:42.422Z,13.86
2023-04-05T10:37:24.700Z,12.96
2023-04-05T10:39:51.685Z,13.93
2023-04-05T10:42:28.029Z,14.05
2023-04-05T10:45:04.505Z,13.60
2023-04-05T10:47:39.176Z,14.08
2023-04-05T10:50:13.184Z,14.14
2023-04-05T10:52:41.369Z,15.20
2023-04-05T10:55:10.534Z,14.44
2023-04-05T10:57:37.968Z,12.62
2023-04-05T11:00:05.878Z,13.30
2023-04-05T11:02:33.398Z,13.59
2023-04-05T11:05:05.079Z,14.11
2023-04-05T11:07:45.445Z,13.38
2023-04-05T11:10:19.131Z,13.17
2023-04-05T11:12:46.310Z,14.93
2023-04-05T11:15:28.872Z,16.14
2023-04-05T11:18:17.728Z,16.50
2023-04-05T11:20:52.538Z,16.17
2023-04-05T11:23:22.340Z,16.76
2023-04-05T11:25:57.675Z,17.58
2023-04-05T11:28:28.500Z,17.68
2023-04-05T11:30:57.309Z,16.95
2023-04-05T11:33:43.215Z,17.92
2023-04-05T11:36:10.985Z,17.20
2023-04-05T11:38:37.983Z,17.81
2023-04-05T11:41:20.998Z,17.99
2023-04-05T11:43:48.218Z,16.47
2023-04-05T11:46:19.111Z,16.71
2023-04-05T11:48:52.072Z,15.83
2023-04-05T11:51:22.892Z,16.74
2023-04-05T11:53:50.283Z,16.63
2023-04-05T11:56:17.057Z,17.16
2023-04-05T11:58:43.866Z,16.73
2023-04-05T12:01:10.807Z,17.49
2023-04-05T12:03:38.174Z,17.21
2023-04-05T12:06:07.875Z,16.98
2023-04-05T12:08:53.038Z,16.79
2023-04-05T12:11:31.299Z,17.17
2023-04-05T12:14:01.161Z,17.66
2023-04-05T12:16:29.350Z,17.39
2023-04-05T12:19:00.652Z,18.06
2023-04-05T12:21:28.448Z,18.37
2023-04-05T12:23:55.426Z,18.47
2023-04-05T12:26:22.530Z,18.03
2023-04-05T12:28:53.717Z,16.65
2023-04-05T12:31:45.478Z,16.86
2023-04-05T12:34:15.489Z,17.86
2023-04-05T12:36:46.391Z,18.35
2023-04-05T12:39:13.245Z,18.34
2023-04-05T12:41:40.261Z,18.28
2023-04-05T12:44:15.702Z,18.69
2023-04-05T12:46:46.126Z,17.83
2023-04-05T12:49:17.504Z,17.40
2023-04-05T12:51:48.361Z,17.05
2023-04-05T12:54:24.277Z,17.84
2023-04-05T12:56:53.728Z,19.14
2023-04-05T12:59:24.226Z,19.06
2023-04-05T13:01:51.405Z,17.71
2023-04-05T13:04:18.355Z,15.78
2023-04-05T13:06:47.537Z,13.81
2023-04-05T13:09:14.765Z,14.03
2023-04-05T13:11:41.585Z,17.04
2023-04-05T13:14:08.882Z,19.75
2023-04-05T13:16:36.394Z,21.57
2023-04-05T13:19:03.189Z,23.87
2023-04-05T13:21:30.051Z,22.64
2023-04-05T13:23:56.874Z,23.98
2023-04-05T13:26:23.820Z,24.64
2023-04-05T13:28:50.840Z,24.86
2023-04-05T13:31:17.738Z,23.24
2023-04-05T13:33:44.571Z,23.94
2023-04-05T13:36:12.442Z,23.83
2023-04-05T13:38:39.853Z,25.73
2023-04-05T13:41:06.776Z,27.16
2023-04-05T13:43:33.964Z,28.19
2023-04-05T13:46:00.761Z,26.58
2023-04-05T13:48:27.605Z,27.92
2023-04-05T13:50:54.376Z,28.29
2023-04-05T13:53:21.179Z,27.13
2023-04-05T13:55:48.018Z,26.79
2023-04-05T13:58:14.833Z,28.09
2023-04-05T14:00:42.037Z,24.77
2023-04-05T14:03:09.114Z,22.98
2023-04-05T14:05:36.086Z,20.17
2023-04-05T14:08:02.965Z,17.67
2023-04-05T14:10:32.017Z,16.77
2023-04-05T14:12:58.826Z,16.66
2023-04-05T14:15:25.811Z,17.35
2023-04-05T14:17:52.724Z,17.34
2023-04-05T14:20:19.582Z,19.77
2023-04-05T14:22:46.417Z,21.52
2023-04-05T14:25:13.270Z,23.76
2023-04-05T14:27:42.289Z,25.53
2023-04-05T14:30:11.344Z,26.54
2023-04-05T14:32:38.636Z,24.69
2023-04-05T14:35:06.248Z,25.18
2023-04-05T14:37:33.091Z,24.23
2023-04-05T14:39:59.919Z,24.36
2023-04-05T14:42:37.192Z,25.74
2023-04-05T14:45:09.392Z,26.97
2023-04-05T14:47:36.233Z,26.64
2023-04-05T14:50:03.238Z,23.36
2023-04-05T14:52:30.581Z,21.83
2023-04-05T14:54:57.451Z,21.73
2023-04-05T14:57:24.349Z,22.09
2023-04-05T14:59:51.240Z,23.55
2023-04-05T15:02:18.228Z,24.21
2023-04-05T15:04:45.125Z,25.48
2023-04-05T15:07:11.947Z,25.44
2023-04-05T15:09:38.808Z,27.02
2023-04-05T15:12:06.677Z,28.31
2023-04-05T15:14:33.455Z,28.34
2023-04-05T15:17:00.408Z,29.81
2023-04-05T15:19:27.586Z,29.59
2023-04-05T15:21:54.537Z,28.78
2023-04-05T15:24:21.510Z,26.78
2023-04-05T15:26:48.350Z,24.63
2023-04-05T15:29:15.348Z,22.13
2023-04-05T15:31:42.665Z,19.94
2023-04-05T15:34:09.514Z,18.71
2023-04-05T15:36:36.592Z,17.48
2023-04-05T15:39:05.137Z,16.70
2023-04-05T15:41:34.147Z,16.09
2023-04-05T15:44:01.438Z,15.70
2023-04-05T15:46:29.110Z,15.41
2023-04-05T15:48:56.225Z,15.02
2023-04-05T15:51:23.230Z,14.77
2023-04-05T15:53:50.719Z,13.45
2023-04-05T15:56:18.177Z,13.75
2023-04-05T15:58:45.249Z,14.07
2023-04-05T16:01:12.297Z,13.96
2023-04-05T16:03:39.380Z,13.92
2023-04-05T16:06:06.603Z,13.74
2023-04-05T16:08:33.594Z,13.73
2023-04-05T16:11:00.577Z,13.51
2023-04-05T16:13:28.087Z,13.50
2023-04-05T16:15:54.955Z,13.15
2023-04-05T16:18:23.693Z,13.21
2023-04-05T16:20:50.771Z,13.97
2023-04-05T16:23:17.578Z,14.77
2023-04-05T16:25:44.439Z,14.97
2023-04-05T16:28:11.288Z,14.84
2023-04-05T16:30:38.231Z,13.95
2023-04-05T16:33:05.727Z,14.64
2023-04-05T16:35:32.645Z,14.68
2023-04-05T16:37:59.577Z,14.84
2023-04-05T16:40:26.642Z,14.21
2023-04-05T16:42:54.237Z,14.33
2023-04-05T16:45:21.464Z,14.24
2023-04-05T16:47:48.465Z,14.20
2023-04-05T16:50:15.513Z,14.05
2023-04-05T16:52:42.443Z,13.76
2023-04-05T16:55:09.839Z,13.65
2023-04-05T16:57:36.727Z,13.71
2023-04-05T17:00:05.672Z,13.34
2023-04-05T17:02:32.565Z,13.32
2023-04-05T17:04:59.418Z,13.35
2023-04-05T17:07:26.388Z,13.36
2023-04-05T17:09:53.365Z,13.27
2023-04-05T17:12:20.341Z,12.83
2023-04-05T17:14:47.177Z,12.67
2023-04-05T17:17:13.957Z,12.29
2023-04-05T17:19:41.066Z,11.83
2023-04-05T17:22:08.248Z,11.66
2023-04-05T17:24:36.755Z,11.19
2023-04-05T17:27:04.447Z,11.08
2023-04-05T17:29:31.351Z,11.00
2023-04-05T17:31:58.180Z,10.89
2023-04-05T17:34:25.014Z,10.67
2023-04-05T17:36:52.805Z,10.56
2023-04-05T17:39:19.701Z,10.40
2023-04-05T17:41:46.677Z,10.30
2023-04-05T17:44:14.633Z,10.06
2023-04-05T17:46:48.503Z,9.89
2023-04-05T17:49:21.152Z,9.58
2023-04-05T17:51:48.495Z,9.38
2023-04-05T17:54:15.555Z,9.21
2023-04-05T17:56:42.647Z,9.09
2023-04-05T17:59:09.784Z,8.99
2023-04-05T18:01:38.008Z,8.75
2023-04-05T18:04:05.726Z,8.60
2023-04-05T18:06:33.004Z,8.46
2023-04-05T18:09:00.297Z,8.38
2023-04-05T18:11:27.080Z,8.24
2023-04-05T18:13:53.927Z,8.10
2023-04-05T18:16:21.655Z,7.98
2023-04-05T18:18:48.487Z,7.90
2023-04-05T18:21:15.326Z,7.85
2023-04-05T18:23:43.225Z,7.63
2023-04-05T18:26:10.097Z,7.53
2023-04-05T18:28:36.975Z,7.50
2023-04-05T18:31:03.887Z,7.43
2023-04-05T18:33:30.759Z,7.41
2023-04-05T18:35:57.707Z,7.32
2023-04-05T18:38:24.583Z,7.26
2023-04-05T18:41:03.861Z,7.23
2023-04-05T18:43:31.080Z,7.18
2023-04-05T18:45:57.952Z,7.10
2023-04-05T18:48:25.471Z,6.96
2023-04-05T18:50:56.186Z,6.92
2023-04-05T18:53:23.499Z,6.97
2023-04-05T18:55:52.161Z,7.01
2023-04-05T18:58:19.543Z,6.96
2023-04-05T19:00:46.421Z,6.96
2023-04-05T19:03:14.061Z,6.94
2023-04-05T19:05:41.272Z,6.94
2023-04-05T19:08:08.152Z,6.90
2023-04-05T19:10:35.056Z,6.96
2023-04-05T19:13:01.915Z,6.99
2023-04-05T19:15:28.803Z,6.97
2023-04-05T19:17:56.299Z,6.91
2023-04-05T19:20:23.148Z,6.85
2023-04-05T19:22:50.289Z,6.80
2023-04-05T19:25:17.367Z,6.77
2023-04-05T19:27:44.227Z,6.68
2023-04-05T19:30:11.573Z,6.58
2023-04-05T19:32:38.595Z,6.57
2023-04-05T19:35:08.988Z,6.49
2023-04-05T19:37:36.213Z,6.41
2023-04-05T19:40:05.639Z,6.31
2023-04-05T19:42:33.122Z,6.29
2023-04-05T19:45:00.063Z,6.19
2023-04-05T19:47:27.265Z,6.14
2023-04-05T19:49:58.524Z,5.86
2023-04-05T19:52:49.039Z,5.92
2023-04-05T19:55:36.134Z,5.92
2023-04-05T19:58:12.086Z,5.90
2023-04-05T20:00:52.416Z,5.88
2023-04-05T20:03:40.032Z,5.96
2023-04-05T20:06:16.691Z,5.96
2023-04-05T20:08:46.803Z,5.89
2023-04-05T20:11:18.878Z,5.83
2023-04-05T20:13:54.555Z,5.87
2023-04-05T20:16:27.514Z,5.74
2023-04-05T20:18:58.784Z,5.67
2023-04-05T20:21:26.095Z,5.60
2023-04-05T20:23:53.415Z,5.55
2023-04-05T20:26:28.249Z,5.46
2023-04-05T20:28:57.503Z,5.45
2023-04-05T20:31:29.298Z,5.44
2023-04-05T20:34:14.554Z,5.44
2023-04-05T20:36:52.320Z,5.38
2023-04-05T20:39:19.322Z,5.33
2023-04-05T20:41:47.089Z,5.30
2023-04-05T20:44:14.006Z,5.28
2023-04-05T20:46:41.133Z,5.27
2023-04-05T20:49:08.313Z,5.25
2023-04-05T20:51:36.217Z,5.23
2023-04-05T20:54:03.227Z,5.19
2023-04-05T20:56:30.289Z,5.14
2023-04-05T20:58:57.234Z,5.11
2023-04-05T21:01:24.090Z,5.10
2023-04-05T21:03:51.178Z,5.08
2023-04-05T21:06:18.054Z,4.97
2023-04-05T21:08:44.880Z,4.88
2023-04-05T21:11:11.904Z,4.87
2023-04-05T21:13:41.346Z,4.81
2023-04-05T21:16:08.556Z,4.78
2023-04-05T21:18:36.340Z,4.62
2023-04-05T21:21:03.441Z,4.57
2023-04-05T21:23:31.578Z,4.54
2023-04-05T21:26:04.135Z,4.57
2023-04-05T21:28:31.138Z,4.55
2023-04-05T21:30:57.971Z,4.57
2023-04-05T21:33:25.230Z,4.57
2023-04-05T21:35:52.256Z,4.50
2023-04-05T21:38:19.242Z,4.46
2023-04-05T21:40:46.072Z,4.42
2023-04-05T21:43:13.428Z,4.36
2023-04-05T21:45:40.465Z,4.27
2023-04-05T21:48:07.511Z,4.22
2023-04-05T21:50:34.352Z,4.20
2023-04-05T21:53:01.236Z,4.20
2023-04-05T21:55:28.008Z,4.25
2023-04-05T21:57:54.922Z,4.24
2023-04-05T22:00:21.770Z,4.19
2023-04-05T22:02:48.677Z,4.24
2023-04-05T22:05:29.616Z,4.20
2023-04-05T22:08:03.648Z,4.25
2023-04-05T22:10:30.639Z,4.23
2023-04-05T22:12:57.498Z,4.23
2023-04-05T22:15:24.337Z,4.15
2023-04-05T22:17:51.275Z,4.10
2023-04-05T22:20:18.298Z,4.06
2023-04-05T22:22:45.141Z,3.99
2023-04-05T22:25:12.096Z,3.94
2023-04-05T22:27:39.445Z,3.92
2023-04-05T22:30:08.231Z,3.89
2023-04-05T22:32:35.711Z,3.85
2023-04-05T22:35:04.330Z,3.84
2023-04-05T22:37:35.521Z,3.82
2023-04-05T22:40:04.082Z,3.84
2023-04-05T22:42:30.957Z,3.77
2023-04-05T22:44:57.777Z,3.65
2023-04-05T22:47:24.741Z,3.63
2023-04-05T22:49:52.181Z,3.58
2023-04-05T22:52:19.176Z,3.56
2023-04-05T22:54:46.090Z,3.57
2023-04-05T22:57:13.057Z,3.60
2023-04-05T22:59:39.989Z,3.51
2023-04-05T23:02:06.848Z,3.49
2023-04-05T23:04:33.785Z,3.40
2023-04-05T23:07:00.780Z,3.36
2023-04-05T23:09:27.730Z,3.40
2023-04-05T23:11:54.517Z,3.42
2023-04-05T23:14:21.761Z,3.37
2023-04-05T23:16:48.601Z,3.28
2023-04-05T23:19:16.629Z,3.23
2023-04-05T23:21:43.573Z,3.17
2023-04-05T23:24:10.991Z,3.13
2023-04-05T23:26:38.073Z,3.07
2023-04-05T23:29:04.931Z,3.11
2023-04-05T23:31:31.805Z,3.19
2023-04-05T23:33:58.620Z,3.12
2023-04-05T23:36:26.030Z,3.03
2023-04-05T23:38:52.820Z,3.00
2023-04-05T23:41:19.675Z,2.95
2023-04-05T23:43:46.506Z,2.96
2023-04-05T23:46:13.684Z,2.93
2023-04-05T23:48:41.179Z,2.86
2023-04-05T23:51:08.017Z,2.84
2023-04-05T23:53:35.010Z,2.79
2023-04-05T23:56:02.292Z,2.91
2023-04-05T23:58:29.161Z,2.91
